createdAt,value
2023-01-27T00:00:51.625Z,3.40
2023-01-27T00:02:54.377Z,3.07
2023-01-27T00:04:57.491Z,3.13
2023-01-27T00:07:01.643Z,3.40
2023-01-27T00:09:04.334Z,3.60
2023-01-27T00:11:18.006Z,3.60
2023-01-27T00:13:32.078Z,3.37
2023-01-27T00:15:35.236Z,3.23
2023-01-27T00:17:39.292Z,3.60
2023-01-27T00:19:44.548Z,3.43
2023-01-27T00:22:01.576Z,3.37
2023-01-27T00:24:15.270Z,3.50
2023-01-27T00:26:18.908Z,3.40
2023-01-27T00:28:25.530Z,3.70
2023-01-27T00:30:28.651Z,3.47
2023-01-27T00:32:42.459Z,3.50
2023-01-27T00:34:46.418Z,3.40
2023-01-27T00:36:49.067Z,3.53
2023-01-27T00:38:52.074Z,3.63
2023-01-27T00:41:05.869Z,3.23
2023-01-27T00:43:08.570Z,2.93
2023-01-27T00:45:23.161Z,3.33
2023-01-27T00:47:25.902Z,3.37
2023-01-27T00:49:28.641Z,2.83
2023-01-27T00:51:32.682Z,3.10
2023-01-27T00:53:35.823Z,3.33
2023-01-27T00:55:38.529Z,3.17
2023-01-27T00:57:41.208Z,4.13
2023-01-27T00:59:43.857Z,3.30
2023-01-27T01:01:49.801Z,3.00
2023-01-27T01:03:52.471Z,2.90
2023-01-27T01:05:55.165Z,3.07
2023-01-27T01:07:59.111Z,3.30
2023-01-27T01:10:02.140Z,3.40
2023-01-27T01:12:04.852Z,3.80
2023-01-27T01:14:07.513Z,3.53
2023-01-27T01:16:11.568Z,3.10
2023-01-27T01:18:14.744Z,3.23
2023-01-27T01:20:17.624Z,3.90
2023-01-27T01:22:20.367Z,3.30
2023-01-27T01:24:24.956Z,3.67
2023-01-27T01:26:28.151Z,3.27
2023-01-27T01:28:30.902Z,3.33
2023-01-27T01:30:35.200Z,3.30
2023-01-27T01:32:37.923Z,3.43
2023-01-27T01:34:41.020Z,3.37
2023-01-27T01:36:43.691Z,3.10
2023-01-27T01:38:46.570Z,3.90
2023-01-27T01:40:50.561Z,3.60
2023-01-27T01:42:55.546Z,3.50
2023-01-27T01:45:24.892Z,3.90
2023-01-27T01:47:27.567Z,3.57
2023-01-27T01:49:31.837Z,3.50
2023-01-27T01:51:36.311Z,3.53
2023-01-27T01:53:41.835Z,3.37
2023-01-27T01:55:44.524Z,2.97
2023-01-27T01:57:48.598Z,3.60
2023-01-27T01:59:53.063Z,3.50
2023-01-27T02:01:56.618Z,3.30
2023-01-27T02:04:00.543Z,3.47
2023-01-27T02:06:03.236Z,3.53
2023-01-27T02:08:08.486Z,3.60
2023-01-27T02:10:12.651Z,3.80
2023-01-27T02:12:15.527Z,4.30
2023-01-27T02:14:19.534Z,3.90
2023-01-27T02:16:22.747Z,3.90
2023-01-27T02:18:25.449Z,3.60
2023-01-27T02:20:29.774Z,3.20
2023-01-27T02:22:36.544Z,3.00
2023-01-27T02:24:42.702Z,3.33
2023-01-27T02:26:46.715Z,3.63
2023-01-27T02:28:54.521Z,3.43
2023-01-27T02:30:57.462Z,3.70
2023-01-27T02:33:00.897Z,3.47
2023-01-27T02:35:03.649Z,3.97
2023-01-27T02:37:06.930Z,3.97
2023-01-27T02:39:09.746Z,3.43
2023-01-27T02:41:15.554Z,3.30
2023-01-27T02:43:19.514Z,3.73
2023-01-27T02:45:22.247Z,3.43
2023-01-27T02:47:25.176Z,3.60
2023-01-27T02:49:28.250Z,3.87
2023-01-27T02:51:31.141Z,3.83
2023-01-27T02:53:33.864Z,4.07
2023-01-27T02:55:43.547Z,3.60
2023-01-27T02:57:57.275Z,3.93
2023-01-27T03:00:01.445Z,3.60
2023-01-27T03:02:04.634Z,4.00
2023-01-27T03:04:08.741Z,3.60
2023-01-27T03:06:11.495Z,3.60
2023-01-27T03:08:14.231Z,3.40
2023-01-27T03:10:17.103Z,4.50
2023-01-27T03:12:20.353Z,3.87
2023-01-27T03:14:37.127Z,3.93
2023-01-27T03:16:52.069Z,3.90
2023-01-27T03:18:56.433Z,3.30
2023-01-27T03:21:01.768Z,3.63
2023-01-27T03:23:04.527Z,4.17
2023-01-27T03:25:07.704Z,4.10
2023-01-27T03:27:10.420Z,3.70
2023-01-27T03:29:24.332Z,3.57
2023-01-27T03:31:27.153Z,3.73
2023-01-27T03:33:31.306Z,3.70
2023-01-27T03:35:38.915Z,4.23
2023-01-27T03:37:53.584Z,4.37
2023-01-27T03:40:07.432Z,3.40
2023-01-27T03:42:21.061Z,4.33
2023-01-27T03:44:35.167Z,4.20
2023-01-27T03:46:37.839Z,4.50
2023-01-27T03:48:41.899Z,4.30
2023-01-27T03:50:44.620Z,3.70
2023-01-27T03:53:03.066Z,3.87
2023-01-27T03:55:06.466Z,4.03
2023-01-27T03:57:09.216Z,3.97
2023-01-27T03:59:12.348Z,3.90
2023-01-27T04:01:16.493Z,4.27
2023-01-27T04:03:30.214Z,4.10
2023-01-27T04:05:45.151Z,4.03
2023-01-27T04:07:47.819Z,4.20
2023-01-27T04:09:52.364Z,4.40
2023-01-27T04:11:55.347Z,3.77
2023-01-27T04:14:00.925Z,3.80
2023-01-27T04:16:03.581Z,4.17
2023-01-27T04:18:06.594Z,4.30
2023-01-27T04:20:11.201Z,4.33
2023-01-27T04:22:18.390Z,4.03
2023-01-27T04:24:24.379Z,4.30
2023-01-27T04:26:33.076Z,3.97
2023-01-27T04:28:44.325Z,4.77
2023-01-27T04:30:47.495Z,4.43
2023-01-27T04:32:50.228Z,4.20
2023-01-27T04:34:54.167Z,3.80
2023-01-27T04:36:57.090Z,4.00
2023-01-27T04:39:01.098Z,4.63
2023-01-27T04:41:03.965Z,4.30
2023-01-27T04:43:07.234Z,4.40
2023-01-27T04:45:11.181Z,3.93
2023-01-27T04:47:14.097Z,4.03
2023-01-27T04:49:16.792Z,3.90
2023-01-27T04:51:20.580Z,4.30
2023-01-27T04:53:23.267Z,3.83
2023-01-27T04:55:27.483Z,4.47
2023-01-27T04:57:30.663Z,4.13
2023-01-27T04:59:34.405Z,4.00
2023-01-27T05:01:37.131Z,3.63
2023-01-27T05:03:43.565Z,3.70
2023-01-27T05:05:47.037Z,4.10
2023-01-27T05:07:49.733Z,3.77
2023-01-27T05:09:52.389Z,3.93
2023-01-27T05:11:56.430Z,3.87
2023-01-27T05:13:59.394Z,3.60
2023-01-27T05:16:09.059Z,4.17
2023-01-27T05:18:11.756Z,3.57
2023-01-27T05:20:14.489Z,3.83
2023-01-27T05:22:17.508Z,3.70
2023-01-27T05:24:23.168Z,3.33
2023-01-27T05:26:27.963Z,3.53
2023-01-27T05:28:33.988Z,3.33
2023-01-27T05:30:37.075Z,3.33
2023-01-27T05:32:39.742Z,3.67
2023-01-27T05:34:42.387Z,3.40
2023-01-27T05:36:45.093Z,3.27
2023-01-27T05:38:48.121Z,3.57
2023-01-27T05:40:50.818Z,3.87
2023-01-27T05:42:53.490Z,3.40
2023-01-27T05:44:57.913Z,3.00
2023-01-27T05:47:00.605Z,3.67
2023-01-27T05:49:05.377Z,3.50
2023-01-27T05:51:08.236Z,3.10
2023-01-27T05:53:11.483Z,3.40
2023-01-27T05:55:14.488Z,3.40
2023-01-27T05:57:17.358Z,2.80
2023-01-27T05:59:20.029Z,3.40
2023-01-27T06:01:25.409Z,3.10
2023-01-27T06:03:28.083Z,2.90
2023-01-27T06:05:30.801Z,3.50
2023-01-27T06:07:33.449Z,3.10
2023-01-27T06:09:38.816Z,2.93
2023-01-27T06:11:41.570Z,2.97
2023-01-27T06:13:44.228Z,2.93
2023-01-27T06:15:47.477Z,3.10
2023-01-27T06:17:52.935Z,3.43
2023-01-27T06:19:55.692Z,3.23
2023-01-27T06:21:58.401Z,2.90
2023-01-27T06:24:01.198Z,2.80
2023-01-27T06:26:05.503Z,3.17
2023-01-27T06:28:10.771Z,3.20
2023-01-27T06:30:15.413Z,2.90
2023-01-27T06:32:18.440Z,2.97
2023-01-27T06:34:22.495Z,2.67
2023-01-27T06:36:25.183Z,3.00
2023-01-27T06:38:28.233Z,2.63
2023-01-27T06:40:31.892Z,2.80
2023-01-27T06:42:34.586Z,2.40
2023-01-27T06:44:37.269Z,3.00
2023-01-27T06:46:40.049Z,2.63
2023-01-27T06:48:43.270Z,2.70
2023-01-27T06:50:47.482Z,2.50
2023-01-27T06:52:50.172Z,2.70
2023-01-27T06:54:57.567Z,2.70
2023-01-27T06:57:02.916Z,2.83
2023-01-27T06:59:05.628Z,2.50
2023-01-27T07:01:08.454Z,2.60
2023-01-27T07:03:12.533Z,2.90
2023-01-27T07:05:15.900Z,3.27
2023-01-27T07:07:19.859Z,3.03
2023-01-27T07:09:22.569Z,2.80
2023-01-27T07:11:25.695Z,2.33
2023-01-27T07:13:28.659Z,2.77
2023-01-27T07:15:32.367Z,2.70
2023-01-27T07:17:40.355Z,2.47
2023-01-27T07:19:43.261Z,2.87
2023-01-27T07:21:46.647Z,2.70
2023-01-27T07:23:50.715Z,2.67
2023-01-27T07:26:25.048Z,2.40
2023-01-27T07:28:37.582Z,2.80
2023-01-27T07:30:40.343Z,2.50
2023-01-27T07:32:43.247Z,2.43
2023-01-27T07:34:45.959Z,2.40
2023-01-27T07:36:49.080Z,2.43
2023-01-27T07:38:53.054Z,2.33
2023-01-27T07:40:55.736Z,2.73
2023-01-27T07:43:04.041Z,2.07
2023-01-27T07:45:07.574Z,2.40
2023-01-27T07:47:10.373Z,2.60
2023-01-27T07:49:13.418Z,3.00
2023-01-27T07:51:16.491Z,1.90
2023-01-27T07:53:19.137Z,2.80
2023-01-27T07:55:25.419Z,2.47
2023-01-27T07:57:28.717Z,2.40
2023-01-27T07:59:31.401Z,2.50
2023-01-27T08:01:34.118Z,2.33
2023-01-27T08:03:36.960Z,2.63
2023-01-27T08:05:40.184Z,2.37
2023-01-27T08:07:43.117Z,2.20
2023-01-27T08:09:45.771Z,3.13
2023-01-27T08:11:49.739Z,2.20
2023-01-27T08:13:53.632Z,2.23
2023-01-27T08:15:57.775Z,2.70
2023-01-27T08:18:01.750Z,2.70
2023-01-27T08:20:05.325Z,2.63
2023-01-27T08:22:08.259Z,2.57
2023-01-27T08:24:12.890Z,2.27
2023-01-27T08:26:15.616Z,2.37
2023-01-27T08:28:19.784Z,2.73
2023-01-27T08:30:23.429Z,2.90
2023-01-27T08:32:26.158Z,2.47
2023-01-27T08:34:28.790Z,2.60
2023-01-27T08:36:31.425Z,2.63
2023-01-27T08:38:35.535Z,2.60
2023-01-27T08:40:39.225Z,2.43
2023-01-27T08:42:41.925Z,2.50
2023-01-27T08:44:46.269Z,2.70
2023-01-27T08:46:48.949Z,2.63
2023-01-27T08:48:51.976Z,2.03
2023-01-27T08:50:54.770Z,2.33
2023-01-27T08:52:59.052Z,2.10
2023-01-27T08:55:01.754Z,2.30
2023-01-27T08:57:04.499Z,2.10
2023-01-27T08:59:07.593Z,2.63
2023-01-27T09:01:11.581Z,2.30
2023-01-27T09:03:23.228Z,2.00
2023-01-27T09:05:25.934Z,2.10
2023-01-27T09:07:28.881Z,2.30
2023-01-27T09:09:31.610Z,2.13
2023-01-27T09:11:34.290Z,1.83
2023-01-27T09:13:36.982Z,2.27
2023-01-27T09:15:41.401Z,1.83
2023-01-27T09:17:45.419Z,2.20
2023-01-27T09:19:48.111Z,2.10
2023-01-27T09:21:50.801Z,1.87
2023-01-27T09:23:53.855Z,2.07
2023-01-27T09:25:56.562Z,1.90
2023-01-27T09:27:59.707Z,1.80
2023-01-27T09:30:02.433Z,1.80
2023-01-27T09:32:05.891Z,1.80
2023-01-27T09:34:09.883Z,1.80
2023-01-27T09:36:14.736Z,1.43
2023-01-27T09:38:18.707Z,1.80
2023-01-27T09:40:31.465Z,1.70
2023-01-27T09:42:43.546Z,1.60
2023-01-27T09:44:53.853Z,1.87
2023-01-27T09:47:04.651Z,1.93
2023-01-27T09:49:17.776Z,1.50
2023-01-27T09:51:23.044Z,1.87
2023-01-27T09:53:42.590Z,2.00
2023-01-27T09:55:47.441Z,1.87
2023-01-27T09:57:53.127Z,2.00
2023-01-27T10:00:04.517Z,2.10
2023-01-27T10:02:12.565Z,1.87
2023-01-27T10:04:26.259Z,1.70
2023-01-27T10:06:44.491Z,2.00
2023-01-27T10:08:55.896Z,1.80
2023-01-27T10:11:06.220Z,1.70
2023-01-27T10:13:18.784Z,1.80
2023-01-27T10:15:29.618Z,2.07
2023-01-27T10:17:37.192Z,1.40
2023-01-27T10:19:53.663Z,1.47
2023-01-27T10:22:00.631Z,1.90
2023-01-27T10:24:05.746Z,1.93
2023-01-27T10:26:16.095Z,2.00
2023-01-27T10:28:21.731Z,1.73
2023-01-27T10:30:29.098Z,1.50
2023-01-27T10:32:34.662Z,1.57
2023-01-27T10:34:38.455Z,1.43
2023-01-27T10:36:45.082Z,1.80
2023-01-27T10:38:49.135Z,1.70
2023-01-27T10:40:54.551Z,1.50
2023-01-27T10:43:02.112Z,1.83
2023-01-27T10:45:12.369Z,1.30
2023-01-27T10:47:19.262Z,1.60
2023-01-27T10:49:24.383Z,1.43
2023-01-27T10:51:29.001Z,1.67
2023-01-27T10:53:37.335Z,2.00
2023-01-27T10:55:42.709Z,1.50
2023-01-27T10:57:47.627Z,1.50
2023-01-27T11:00:14.557Z,1.70
2023-01-27T11:02:17.192Z,1.77
2023-01-27T11:04:31.434Z,1.50
2023-01-27T11:06:36.389Z,1.50
2023-01-27T11:08:41.715Z,1.47
2023-01-27T11:11:15.105Z,1.67
2023-01-27T11:13:17.777Z,1.53
2023-01-27T11:15:26.143Z,1.30
2023-01-27T11:17:31.356Z,1.70
2023-01-27T11:19:39.775Z,1.70
2023-01-27T11:21:42.450Z,2.30
2023-01-27T11:23:48.972Z,1.90
2023-01-27T11:25:55.209Z,1.63
2023-01-27T11:28:05.631Z,1.43
2023-01-27T11:30:12.354Z,1.70
2023-01-27T11:32:19.962Z,1.40
2023-01-27T11:34:26.050Z,1.30
2023-01-27T11:36:29.776Z,1.50
2023-01-27T11:38:32.965Z,1.60
2023-01-27T11:40:38.364Z,1.60
2023-01-27T11:42:41.803Z,1.60
2023-01-27T11:44:46.620Z,1.40
2023-01-27T11:46:50.274Z,1.70
2023-01-27T11:48:55.676Z,1.57
2023-01-27T11:50:58.325Z,1.53
2023-01-27T11:53:10.247Z,1.57
2023-01-27T11:55:17.748Z,1.57
2023-01-27T11:57:22.660Z,1.60
2023-01-27T11:59:26.911Z,1.80
2023-01-27T12:01:38.185Z,1.77
2023-01-27T12:03:47.284Z,1.60
2023-01-27T12:05:53.622Z,1.53
2023-01-27T12:07:57.153Z,1.50
2023-01-27T12:10:00.234Z,1.37
2023-01-27T12:12:11.469Z,1.57
2023-01-27T12:14:15.531Z,1.50
2023-01-27T12:16:18.371Z,1.20
2023-01-27T12:18:23.487Z,1.40
2023-01-27T12:20:32.595Z,1.23
2023-01-27T12:22:37.663Z,1.40
2023-01-27T12:24:42.345Z,1.60
2023-01-27T12:26:45.429Z,1.13
2023-01-27T12:28:54.484Z,1.50
2023-01-27T12:31:00.729Z,1.50
2023-01-27T12:33:12.392Z,1.40
2023-01-27T12:35:20.728Z,1.33
2023-01-27T12:37:25.310Z,1.30
2023-01-27T12:39:34.198Z,1.30
2023-01-27T12:41:37.502Z,1.37
2023-01-27T12:43:51.242Z,1.33
2023-01-27T12:46:19.166Z,1.30
2023-01-27T12:48:22.153Z,1.30
2023-01-27T12:50:25.810Z,1.40
2023-01-27T12:52:28.487Z,1.20
2023-01-27T12:54:33.127Z,1.20
2023-01-27T12:57:21.514Z,1.30
2023-01-27T12:59:24.887Z,1.63
2023-01-27T13:01:31.124Z,1.70
2023-01-27T13:03:39.183Z,1.40
2023-01-27T13:05:42.853Z,1.70
2023-01-27T13:07:46.689Z,1.10
2023-01-27T13:09:51.240Z,1.13
2023-01-27T13:11:55.097Z,1.50
2023-01-27T13:13:57.751Z,1.47
2023-01-27T13:16:04.722Z,1.30
2023-01-27T13:18:15.510Z,1.23
2023-01-27T13:20:20.465Z,1.13
2023-01-27T13:22:23.182Z,1.50
2023-01-27T13:24:31.438Z,1.47
2023-01-27T13:26:37.221Z,1.20
2023-01-27T13:28:51.617Z,1.10
2023-01-27T13:30:57.541Z,1.40
2023-01-27T13:33:01.908Z,1.40
2023-01-27T13:35:11.935Z,1.20
2023-01-27T13:37:17.130Z,1.10
2023-01-27T13:39:21.251Z,1.20
2023-01-27T13:41:26.071Z,1.23
2023-01-27T13:43:33.543Z,1.03
2023-01-27T13:45:39.043Z,1.20
2023-01-27T13:47:45.445Z,1.10
2023-01-27T13:49:49.205Z,1.40
2023-01-27T13:51:53.156Z,1.00
2023-01-27T13:53:59.427Z,1.23
2023-01-27T13:56:11.369Z,1.20
2023-01-27T13:58:17.110Z,1.20
2023-01-27T14:00:23.786Z,1.93
2023-01-27T14:02:36.011Z,1.30
2023-01-27T14:04:56.248Z,1.20
2023-01-27T14:07:05.606Z,1.10
2023-01-27T14:09:16.186Z,1.20
2023-01-27T14:11:24.057Z,1.10
2023-01-27T14:13:32.123Z,1.03
2023-01-27T14:15:38.566Z,1.17
2023-01-27T14:17:44.672Z,1.17
2023-01-27T14:19:52.208Z,1.20
2023-01-27T14:21:57.561Z,1.20
2023-01-27T14:24:03.647Z,1.30
2023-01-27T14:26:13.100Z,1.30
2023-01-27T14:28:21.275Z,1.33
2023-01-27T14:30:25.716Z,1.50
2023-01-27T14:32:30.737Z,1.63
2023-01-27T14:34:40.675Z,1.17
2023-01-27T14:36:44.716Z,1.40
2023-01-27T14:38:51.612Z,1.20
2023-01-27T14:41:04.477Z,1.20
2023-01-27T14:43:15.374Z,1.50
2023-01-27T14:45:21.760Z,1.57
2023-01-27T14:47:26.335Z,1.10
2023-01-27T14:49:38.634Z,1.27
2023-01-27T14:51:43.344Z,1.30
2023-01-27T14:53:53.779Z,1.70
2023-01-27T14:55:59.652Z,1.70
2023-01-27T14:58:11.584Z,1.10
2023-01-27T15:00:22.425Z,4.53
2023-01-27T15:02:34.735Z,1.40
2023-01-27T15:04:42.121Z,1.20
2023-01-27T15:06:47.303Z,1.30
2023-01-27T15:08:53.460Z,1.10
2023-01-27T15:11:00.780Z,1.03
2023-01-27T15:13:13.705Z,1.37
2023-01-27T15:15:27.846Z,1.40
2023-01-27T15:17:37.477Z,1.20
2023-01-27T15:19:49.247Z,1.00
2023-01-27T15:22:11.087Z,1.10
2023-01-27T15:24:23.677Z,1.27
2023-01-27T15:26:28.422Z,1.37
2023-01-27T15:28:32.866Z,1.17
2023-01-27T15:30:38.411Z,1.17
2023-01-27T15:32:41.222Z,1.27
2023-01-27T15:34:45.425Z,1.47
2023-01-27T15:37:00.580Z,1.43
2023-01-27T15:39:18.905Z,1.30
2023-01-27T15:41:23.096Z,1.37
2023-01-27T15:43:27.902Z,1.30
2023-01-27T15:45:33.347Z,1.20
2023-01-27T15:47:36.256Z,1.50
2023-01-27T15:49:41.390Z,1.20
2023-01-27T15:51:44.084Z,1.50
2023-01-27T15:53:49.608Z,1.23
2023-01-27T15:55:53.813Z,1.40
2023-01-27T15:58:04.542Z,1.50
2023-01-27T16:00:23.179Z,1.50
2023-01-27T16:02:26.773Z,1.40
2023-01-27T16:04:31.082Z,1.30
2023-01-27T16:06:35.301Z,1.50
2023-01-27T16:08:40.241Z,1.30
2023-01-27T16:10:42.999Z,1.10
2023-01-27T16:12:48.516Z,1.50
2023-01-27T16:14:51.669Z,1.43
2023-01-27T16:17:09.368Z,1.33
2023-01-27T16:19:19.197Z,1.20
2023-01-27T16:21:37.901Z,1.60
2023-01-27T16:23:44.659Z,1.20
2023-01-27T16:25:49.384Z,1.60
2023-01-27T16:27:55.243Z,1.30
2023-01-27T16:29:59.232Z,1.30
2023-01-27T16:32:06.857Z,1.17
2023-01-27T16:34:17.096Z,1.10
2023-01-27T16:36:24.737Z,1.30
2023-01-27T16:38:28.816Z,1.30
2023-01-27T16:40:31.794Z,1.50
2023-01-27T16:42:36.028Z,1.40
2023-01-27T16:44:40.347Z,1.37
2023-01-27T16:46:44.152Z,1.10
2023-01-27T16:48:49.912Z,1.20
2023-01-27T16:50:52.875Z,1.30
2023-01-27T16:52:55.812Z,1.20
2023-01-27T16:54:59.216Z,1.00
2023-01-27T16:57:02.169Z,1.20
2023-01-27T16:59:06.144Z,1.30
2023-01-27T17:01:18.788Z,1.20
2023-01-27T17:03:25.640Z,1.20
2023-01-27T17:05:29.622Z,1.30
2023-01-27T17:07:34.632Z,1.30
2023-01-27T17:09:41.067Z,1.13
2023-01-27T17:11:43.970Z,1.50
2023-01-27T17:13:48.471Z,1.13
2023-01-27T17:15:51.168Z,1.53
2023-01-27T17:17:54.223Z,1.20
2023-01-27T17:20:04.242Z,1.33
2023-01-27T17:22:20.303Z,1.30
2023-01-27T17:24:30.769Z,1.20
2023-01-27T17:26:34.934Z,1.20
2023-01-27T17:28:37.589Z,1.33
2023-01-27T17:30:42.063Z,1.03
2023-01-27T17:32:47.512Z,1.30
2023-01-27T17:34:50.738Z,1.30
2023-01-27T17:37:09.040Z,1.50
2023-01-27T17:39:22.287Z,1.20
2023-01-27T17:41:29.347Z,1.33
2023-01-27T17:43:33.298Z,1.20
2023-01-27T17:45:36.192Z,1.30
2023-01-27T17:47:39.021Z,1.20
2023-01-27T17:49:42.032Z,1.10
2023-01-27T17:51:49.343Z,1.27
2023-01-27T17:53:52.180Z,1.30
2023-01-27T17:55:56.809Z,1.23
2023-01-27T17:58:03.557Z,1.20
2023-01-27T18:00:10.657Z,1.43
2023-01-27T18:02:17.609Z,1.10
2023-01-27T18:04:20.372Z,1.10
2023-01-27T18:06:23.747Z,1.17
2023-01-27T18:08:26.809Z,1.20
2023-01-27T18:10:39.337Z,1.20
2023-01-27T18:12:43.294Z,1.30
2023-01-27T18:14:46.073Z,1.17
2023-01-27T18:16:59.370Z,1.30
2023-01-27T18:19:08.332Z,1.30
2023-01-27T18:21:16.643Z,1.10
2023-01-27T18:23:19.687Z,1.40
2023-01-27T18:25:51.621Z,1.40
2023-01-27T18:27:55.969Z,1.10
2023-01-27T18:30:02.185Z,1.20
2023-01-27T18:32:10.221Z,1.10
2023-01-27T18:34:22.668Z,1.17
2023-01-27T18:36:25.913Z,1.40
2023-01-27T18:38:31.068Z,1.20
2023-01-27T18:40:34.809Z,1.40
2023-01-27T18:42:38.043Z,1.30
2023-01-27T18:44:42.033Z,1.40
2023-01-27T18:46:44.863Z,1.30
2023-01-27T18:48:48.535Z,1.30
2023-01-27T18:50:52.132Z,1.30
2023-01-27T18:52:55.213Z,1.60
2023-01-27T18:55:01.336Z,1.50
2023-01-27T18:57:04.406Z,1.20
2023-01-27T18:59:14.659Z,1.40
2023-01-27T19:01:28.141Z,1.60
2023-01-27T19:03:40.820Z,1.40
2023-01-27T19:05:44.161Z,1.70
2023-01-27T19:07:46.967Z,1.73
2023-01-27T19:09:54.923Z,1.60
2023-01-27T19:11:59.103Z,2.07
2023-01-27T19:14:01.869Z,1.77
2023-01-27T19:16:04.712Z,1.60
2023-01-27T19:18:13.791Z,1.40
2023-01-27T19:20:18.072Z,1.90
2023-01-27T19:22:21.045Z,1.93
2023-01-27T19:24:23.831Z,1.60
2023-01-27T19:26:27.531Z,1.70
2023-01-27T19:28:34.736Z,1.80
2023-01-27T19:30:39.230Z,1.67
2023-01-27T19:32:41.955Z,1.60
2023-01-27T19:35:38.532Z,1.40
2023-01-27T19:37:41.404Z,1.63
2023-01-27T19:39:45.004Z,1.70
2023-01-27T19:41:54.693Z,1.70
2023-01-27T19:43:57.426Z,1.50
2023-01-27T19:46:01.194Z,1.77
2023-01-27T19:48:03.920Z,1.33
2023-01-27T19:50:07.681Z,1.67
2023-01-27T19:52:11.682Z,1.60
2023-01-27T19:54:14.388Z,1.50
2023-01-27T19:56:17.708Z,1.60
2023-01-27T19:58:22.319Z,1.50
2023-01-27T20:00:27.420Z,1.60
2023-01-27T20:02:30.185Z,1.40
2023-01-27T20:04:32.908Z,1.67
2023-01-27T20:06:38.628Z,1.70
2023-01-27T20:08:42.734Z,1.60
2023-01-27T20:10:45.452Z,1.63
2023-01-27T20:12:53.815Z,2.07
2023-01-27T20:14:57.017Z,1.60
2023-01-27T20:16:59.964Z,1.40
2023-01-27T20:19:03.016Z,1.50
2023-01-27T20:21:06.209Z,1.50
2023-01-27T20:23:10.074Z,2.00
2023-01-27T20:25:15.557Z,1.43
2023-01-27T20:27:18.430Z,1.63
2023-01-27T20:29:21.577Z,1.80
2023-01-27T20:31:24.345Z,1.47
2023-01-27T20:33:27.050Z,1.60
2023-01-27T20:35:32.628Z,1.60
2023-01-27T20:37:35.914Z,1.90
2023-01-27T20:39:38.570Z,1.73
2023-01-27T20:41:42.545Z,1.60
2023-01-27T20:43:45.273Z,1.60
2023-01-27T20:45:48.464Z,1.70
2023-01-27T20:47:51.877Z,1.67
2023-01-27T20:49:54.533Z,1.60
2023-01-27T20:51:57.222Z,1.60
2023-01-27T20:54:00.728Z,1.33
2023-01-27T20:56:03.904Z,1.53
2023-01-27T20:58:07.951Z,1.50
2023-01-27T21:00:15.683Z,1.50
2023-01-27T21:02:18.951Z,1.50
2023-01-27T21:04:21.819Z,1.73
2023-01-27T21:06:24.570Z,1.40
2023-01-27T21:08:27.292Z,1.50
2023-01-27T21:10:30.439Z,1.50
2023-01-27T21:12:33.163Z,1.60
2023-01-27T21:14:39.948Z,1.70
2023-01-27T21:16:42.809Z,1.57
2023-01-27T21:18:45.907Z,1.37
2023-01-27T21:20:49.219Z,1.10
2023-01-27T21:22:51.934Z,1.70
2023-01-27T21:24:54.769Z,1.60
2023-01-27T21:26:57.857Z,1.60
2023-01-27T21:29:00.590Z,1.30
2023-01-27T21:31:11.682Z,1.60
2023-01-27T21:33:17.671Z,1.80
2023-01-27T21:35:20.567Z,1.60
2023-01-27T21:37:24.887Z,1.43
2023-01-27T21:39:27.923Z,1.47
2023-01-27T21:41:45.030Z,1.50
2023-01-27T21:43:58.689Z,1.37
2023-01-27T21:46:03.318Z,1.30
2023-01-27T21:48:07.448Z,1.40
2023-01-27T21:50:11.969Z,1.60
2023-01-27T21:52:14.655Z,1.50
2023-01-27T21:54:17.414Z,1.30
2023-01-27T21:56:20.191Z,1.40
2023-01-27T21:58:23.195Z,1.50
2023-01-27T22:00:27.156Z,1.10
2023-01-27T22:02:30.597Z,1.23
2023-01-27T22:04:34.609Z,1.20
2023-01-27T22:06:37.964Z,1.10
2023-01-27T22:08:40.616Z,1.40
2023-01-27T22:10:43.671Z,1.30
2023-01-27T22:12:46.493Z,1.03
2023-01-27T22:14:49.589Z,1.30
2023-01-27T22:16:52.261Z,0.93
2023-01-27T22:18:54.919Z,1.00
2023-01-27T22:21:01.748Z,1.07
2023-01-27T22:23:04.734Z,1.10
2023-01-27T22:25:07.895Z,1.10
2023-01-27T22:27:10.697Z,1.30
2023-01-27T22:29:13.659Z,1.40
2023-01-27T22:31:16.770Z,1.23
2023-01-27T22:33:22.583Z,1.30
2023-01-27T22:35:25.321Z,1.23
2023-01-27T22:37:29.476Z,1.33
2023-01-27T22:39:32.551Z,1.50
2023-01-27T22:41:35.235Z,1.10
2023-01-27T22:43:38.161Z,1.40
2023-01-27T22:45:43.379Z,1.30
2023-01-27T22:47:46.714Z,1.60
2023-01-27T22:49:49.413Z,1.30
2023-01-27T22:51:52.088Z,1.40
2023-01-27T22:53:56.228Z,1.27
2023-01-27T22:55:59.362Z,1.10
2023-01-27T22:58:02.260Z,1.00
2023-01-27T23:00:06.259Z,1.43
2023-01-27T23:02:08.977Z,1.10
2023-01-27T23:04:12.105Z,1.40
2023-01-27T23:06:14.745Z,1.20
2023-01-27T23:08:20.464Z,1.23
2023-01-27T23:10:24.720Z,1.00
2023-01-27T23:12:27.876Z,1.13
2023-01-27T23:14:30.677Z,1.17
2023-01-27T23:16:33.509Z,1.03
2023-01-27T23:18:36.666Z,1.03
2023-01-27T23:20:40.497Z,1.10
2023-01-27T23:22:43.469Z,1.23
2023-01-27T23:24:47.211Z,1.00
2023-01-27T23:26:51.194Z,0.90
2023-01-27T23:28:54.211Z,1.10
2023-01-27T23:30:57.741Z,0.93
2023-01-27T23:33:02.155Z,0.90
2023-01-27T23:35:05.274Z,0.77
2023-01-27T23:37:08.629Z,1.00
2023-01-27T23:39:12.068Z,1.37
2023-01-27T23:41:18.320Z,1.03
2023-01-27T23:43:22.940Z,1.10
2023-01-27T23:45:26.065Z,0.83
2023-01-27T23:47:28.789Z,1.10
2023-01-27T23:49:31.666Z,1.10
2023-01-27T23:51:34.465Z,1.20
2023-01-27T23:53:37.656Z,1.07
2023-01-27T23:55:40.738Z,1.47
2023-01-27T23:57:43.693Z,1.10
2023-01-27T23:59:47.680Z,1.30
